»·PEaware :: SKW4670 KSAN-KLAS

SKW4670 :: KSAN-KLAS

FLIGHT INFORMATION

Flight Status: Arrived
Operator:
SkyWest Airlines
More flights by this operator :: More flights under this callsign
Pilot: Kevin D. (11220)
Aircraft: CANADAIR CL-600 CRJ-200
(CRJ2)
More flights by this aircraft type
Origin: KSAN San Diego Intl-Lindbergh
United States
Destination: KLAS McCarran Intl
United States
More flights between these airports :: More routes between these airports
Route: PADRZ2 CHKNN SEBBY YELAH MISEN KEPEC6
File this flight plan on PilotEdge
Remarks:
Altitude:
(Current/Filed)
29,000ft
Speed:
(Current/Filed)
400kts
Departed: 13-Feb-18 09:53 PM
Arrived: 13-Feb-18 10:56 PM
Distance/Time
Traveled:
225nm/1:03
Distance/Time
To Go:
Arrived

Flight Plot

Page will automatically refresh every two minutes.

Flight plan parsing failed; only flown route is shown


Map Options




Map Legend


Flown Route
Filed Route
Departure Airport
Arrival Airport
Navaid (VOR, NDB)
Fix

Horizontal Profiles

Position Reports

Time Latitude Longitude Heading Altitude Ground
Speed
13-Feb-18 21:42 32.732965 -117.203406 270 17ft 0kts
13-Feb-18 21:43 32.732965 -117.203406 270 17ft 0kts
13-Feb-18 21:44 32.732965 -117.203406 270 17ft 0kts
13-Feb-18 21:45 32.732965 -117.203406 270 17ft 0kts
13-Feb-18 21:46 32.732965 -117.203411 270 17ft 0kts
13-Feb-18 21:47 32.732962 -117.202859 270 16ft 2kts
13-Feb-18 21:48 32.733060 -117.202543 346 15ft 5kts
13-Feb-18 21:49 32.733401 -117.202656 344 15ft 0kts
13-Feb-18 21:50 32.733401 -117.202656 344 15ft 0kts
13-Feb-18 21:51 32.734339 -117.202600 16 15ft 3kts
13-Feb-18 21:52 32.735249 -117.200926 105 16ft 13kts
13-Feb-18 21:53 32.734158 -117.196426 106 17ft 14kts
13-Feb-18 21:54 32.733048 -117.191839 106 18ft 14kts
13-Feb-18 21:55 32.731914 -117.187167 106 18ft 15kts
13-Feb-18 21:56 32.730703 -117.182195 105 17ft 16kts
13-Feb-18 21:57 32.729590 -117.177614 106 18ft 11kts
13-Feb-18 21:58 32.729486 -117.176830 77 19ft 0kts
13-Feb-18 21:59 32.730287 -117.176220 288 24ft 0kts
13-Feb-18 22:00 32.737381 -117.204016 299 584ft 166kts
13-Feb-18 22:01 32.769639 -117.263684 302 2971ft 250kts
13-Feb-18 22:02 32.809640 -117.333435 304 6424ft 270kts
13-Feb-18 22:03 32.857381 -117.407892 305 9413ft 294kts
13-Feb-18 22:04 32.908104 -117.486672 303 12111ft 316kts
13-Feb-18 22:05 32.964803 -117.574977 302 14418ft 354kts
13-Feb-18 22:06 33.024064 -117.667405 299 17705ft 363kts
13-Feb-18 22:07 33.092909 -117.758839 310 20535ft 390kts
13-Feb-18 22:08 33.168499 -117.836026 310 22767ft 404kts
13-Feb-18 22:09 33.255607 -117.922056 310 24996ft 420kts
13-Feb-18 22:10 33.346726 -118.011109 310 27029ft 433kts
13-Feb-18 22:11 33.440185 -118.102694 309 28881ft 446kts
13-Feb-18 22:12 33.538894 -118.199743 309 29200ft 467kts
13-Feb-18 22:13 33.651684 -118.260328 355 29202ft 522kts
13-Feb-18 22:14 33.773799 -118.180465 60 29204ft 531kts
13-Feb-18 22:15 33.818904 -118.021651 82 29208ft 514kts
13-Feb-18 22:16 33.879814 -117.870761 42 29202ft 539kts
13-Feb-18 22:17 33.989349 -117.749520 46 29230ft 539kts
13-Feb-18 22:18 34.095053 -117.624029 46 29216ft 537kts
13-Feb-18 22:19 34.199313 -117.499771 46 29191ft 533kts
13-Feb-18 22:20 34.303871 -117.374679 46 29213ft 533kts
13-Feb-18 22:21 34.408084 -117.249562 46 29215ft 536kts
13-Feb-18 22:22 34.513628 -117.122361 46 29217ft 534kts
13-Feb-18 22:23 34.618065 -116.996020 46 29220ft 530kts
13-Feb-18 22:24 34.722113 -116.869671 46 29225ft 533kts
13-Feb-18 22:25 34.826252 -116.742734 46 28877ft 532kts
13-Feb-18 22:26 34.926528 -116.620068 46 27108ft 492kts
13-Feb-18 22:27 35.021177 -116.503844 46 25481ft 478kts
13-Feb-18 22:28 35.111815 -116.391973 46 23958ft 463kts
13-Feb-18 22:29 35.196123 -116.286490 47 22295ft 442kts
13-Feb-18 22:30 35.277790 -116.183932 47 20706ft 425kts
13-Feb-18 22:31 35.358078 -116.082815 47 19092ft 408kts
13-Feb-18 22:32 35.435559 -115.984937 47 17491ft 393kts
13-Feb-18 22:33 35.506386 -115.895223 47 15863ft 341kts
13-Feb-18 22:34 35.569938 -115.814491 47 14580ft 327kts
13-Feb-18 22:35 35.632190 -115.735255 47 13442ft 319kts
13-Feb-18 22:36 35.693346 -115.657196 47 13021ft 320kts
13-Feb-18 22:37 35.757554 -115.583443 20 13019ft 318kts
13-Feb-18 22:38 35.843323 -115.571175 1 13014ft 299kts
13-Feb-18 22:39 35.924773 -115.566191 0 13021ft 295kts
13-Feb-18 22:40 35.985643 -115.512831 67 12134ft 286kts
13-Feb-18 22:41 36.010240 -115.440256 70 11491ft 279kts
13-Feb-18 22:42 36.027857 -115.338567 97 10525ft 266kts
13-Feb-18 22:43 36.022000 -115.250826 98 9481ft 265kts
13-Feb-18 22:44 36.017118 -115.180558 99 8709ft 241kts
13-Feb-18 22:45 36.011702 -115.101569 99 8222ft 232kts
13-Feb-18 22:46 36.006044 -115.009299 98 8018ft 231kts
13-Feb-18 22:47 36.002264 -114.945984 98 8022ft 225kts
13-Feb-18 22:48 35.997613 -114.868931 98 8001ft 226kts
13-Feb-18 22:49 35.992103 -114.781742 99 8033ft 201kts
13-Feb-18 22:50 35.988655 -114.729044 100 7992ft 176kts
13-Feb-18 22:51 35.984657 -114.669527 99 8002ft 182kts
13-Feb-18 22:52 35.990968 -114.610984 37 8008ft 200kts
13-Feb-18 22:53 36.046256 -114.602798 340 7991ft 207kts
13-Feb-18 22:54 36.066044 -114.658270 273 8008ft 200kts
13-Feb-18 22:55 36.072703 -114.724564 266 7987ft 193kts
13-Feb-18 22:56 36.073235 -114.788788 265 7116ft 191kts
13-Feb-18 22:57 36.072892 -114.851422 265 6266ft 193kts
13-Feb-18 22:58 36.071001 -114.917534 265 5319ft 197kts
13-Feb-18 22:59 36.072452 -114.979796 272 4432ft 163kts
13-Feb-18 23:00 36.073427 -115.028577 269 3421ft 137kts
13-Feb-18 23:01 36.073524 -115.073756 270 2900ft 138kts
13-Feb-18 23:02 36.073598 -115.119021 272 2301ft 137kts
13-Feb-18 23:03 36.073889 -115.148347 285 2116ft 27kts
13-Feb-18 23:04 36.075328 -115.151288 325 2116ft 11kts
13-Feb-18 23:05 36.078043 -115.151283 90 2116ft 11kts
13-Feb-18 23:06 36.077739 -115.146603 94 2116ft 17kts
13-Feb-18 23:07 36.077654 -115.141736 43 2116ft 8kts
13-Feb-18 23:08 36.078814 -115.139579 31 2116ft 11kts
13-Feb-18 23:09 36.079875 -115.139547 357 2116ft 0kts
13-Feb-18 23:10 36.079875 -115.139547 357 2116ft 0kts
13-Feb-18 23:11 36.079875 -115.139547 357 2116ft 0kts
13-Feb-18 23:12 36.079875 -115.139547 357 2116ft 0kts

Navigation Log

Ident Type
Flight plan parsing failed, navigation log unavailable